»·PEaware :: DAL2133 KSLC-KSAN

DAL2133 :: KSLC-KSAN

FLIGHT INFORMATION

Flight Status: Arrived
Operator:
Delta Air Lines
More flights by this operator :: More flights under this callsign
Pilot: Tyler S. (26661)
Aircraft: BOEING 737-800
(B738)
More flights by this aircraft type
Origin: KSLC Salt Lake City Intl
United States
Destination: KSAN San Diego Intl-Lindbergh
United States
More flights between these airports :: More routes between these airports
Route: +ZIONZ1 EHK LAKRR Q73 LVELL LUCKI1
File this flight plan on PilotEdge
Remarks: TCAS SIMBRIEF
Altitude:
(Current/Filed)
36,000ft
Speed:
(Current/Filed)
441kts
Departed: 20-Nov-20 06:11 PM
Arrived: 20-Nov-20 07:51 PM
Distance/Time
Traveled:
544nm/1:40
Distance/Time
To Go:
Arrived

Flight Plot

Page will automatically refresh every two minutes.

Flight plan parsing failed; only flown route is shown


Map Options




Map Legend


Flown Route
Filed Route
Departure Airport
Arrival Airport
Navaid (VOR, NDB)
Fix

Horizontal Profiles

Position Reports

Time Latitude Longitude Heading Altitude Ground
Speed
20-Nov-20 17:41 40.785565 -111.978041 227 4229ft 0kts
20-Nov-20 17:42 40.785565 -111.978041 227 4229ft 0kts
20-Nov-20 17:43 40.785565 -111.978041 227 4229ft 0kts
20-Nov-20 17:44 40.785565 -111.978041 227 4229ft 0kts
20-Nov-20 17:45 40.785565 -111.978041 227 4229ft 0kts
20-Nov-20 17:46 40.785565 -111.978041 227 4229ft 0kts
20-Nov-20 17:47 40.785565 -111.978041 227 4229ft 0kts
20-Nov-20 17:48 40.785565 -111.978041 227 4229ft 0kts
20-Nov-20 17:49 40.785565 -111.978041 227 4229ft 0kts
20-Nov-20 17:50 40.785565 -111.978041 227 4229ft 0kts
20-Nov-20 17:51 40.785565 -111.978041 227 4229ft 0kts
20-Nov-20 17:52 40.785565 -111.978041 227 4229ft 0kts
20-Nov-20 17:53 40.785565 -111.978041 227 4229ft 0kts
20-Nov-20 17:54 40.785565 -111.978041 227 4229ft 0kts
20-Nov-20 17:55 40.785565 -111.978041 227 4229ft 0kts
20-Nov-20 17:56 40.785565 -111.978041 227 4229ft 0kts
20-Nov-20 17:57 40.785565 -111.978041 227 4229ft 0kts
20-Nov-20 17:58 40.785565 -111.978041 227 4229ft 0kts
20-Nov-20 17:59 40.785565 -111.978041 227 4229ft 0kts
20-Nov-20 18:00 40.785926 -111.977892 163 4228ft 2kts
20-Nov-20 18:01 40.786201 -111.978431 81 4228ft 0kts
20-Nov-20 18:02 40.786201 -111.978430 81 4228ft 0kts
20-Nov-20 18:03 40.786251 -111.977958 83 4227ft 6kts
20-Nov-20 18:04 40.787912 -111.976748 344 4226ft 15kts
20-Nov-20 18:05 40.793314 -111.977656 358 4224ft 20kts
20-Nov-20 18:06 40.799366 -111.978362 352 4228ft 23kts
20-Nov-20 18:07 40.806105 -111.979021 357 4230ft 20kts
20-Nov-20 18:08 40.807402 -111.978578 54 4230ft 0kts
20-Nov-20 18:09 40.807491 -111.977677 107 4230ft 12kts
20-Nov-20 18:10 40.781327 -111.974093 177 4592ft 187kts
20-Nov-20 18:11 40.728432 -111.966916 174 7134ft 203kts
20-Nov-20 18:12 40.674546 -111.950550 159 9348ft 212kts
20-Nov-20 18:13 40.621106 -111.898109 131 10485ft 298kts
20-Nov-20 18:14 40.561337 -111.866629 208 13684ft 289kts
20-Nov-20 18:15 40.487553 -111.928868 214 13989ft 318kts
20-Nov-20 18:16 40.405380 -111.957878 172 14861ft 340kts
20-Nov-20 18:17 40.314587 -111.942454 178 14982ft 328kts
20-Nov-20 18:18 40.223947 -111.945212 189 14981ft 325kts
20-Nov-20 18:19 40.133675 -111.959979 189 15185ft 333kts
20-Nov-20 18:20 40.042723 -111.973291 190 18420ft 334kts
20-Nov-20 18:21 39.949011 -111.987020 192 21126ft 344kts
20-Nov-20 18:22 39.852354 -112.001140 193 23534ft 355kts
20-Nov-20 18:23 39.752424 -112.015694 195 25704ft 366kts
20-Nov-20 18:24 39.649330 -112.030667 196 27624ft 377kts
20-Nov-20 18:25 39.543667 -112.045960 197 29351ft 388kts
20-Nov-20 18:26 39.435227 -112.061554 197 30869ft 399kts
20-Nov-20 18:27 39.323958 -112.077288 198 32527ft 403kts
20-Nov-20 18:28 39.212490 -112.093071 199 34256ft 402kts
20-Nov-20 18:29 39.108146 -112.124898 217 35882ft 368kts
20-Nov-20 18:30 39.018094 -112.188991 220 36389ft 380kts
20-Nov-20 18:31 38.926230 -112.255814 220 36386ft 378kts
20-Nov-20 18:32 38.834239 -112.322616 220 36387ft 381kts
20-Nov-20 18:33 38.741789 -112.389520 220 36382ft 380kts
20-Nov-20 18:34 38.649311 -112.456254 220 36371ft 381kts
20-Nov-20 18:35 38.557280 -112.522467 220 36365ft 380kts
20-Nov-20 18:36 38.464871 -112.588760 220 36363ft 381kts
20-Nov-20 18:37 38.372321 -112.654945 219 36369ft 381kts
20-Nov-20 18:38 38.279724 -112.720869 219 36379ft 381kts
20-Nov-20 18:39 38.186804 -112.786943 219 36379ft 382kts
20-Nov-20 18:40 38.094217 -112.852569 219 36377ft 380kts
20-Nov-20 18:41 38.002180 -112.917624 219 36372ft 378kts
20-Nov-20 18:42 37.910076 -112.982534 219 36364ft 376kts
20-Nov-20 18:43 37.818262 -113.047058 218 36366ft 375kts
20-Nov-20 18:44 37.727533 -113.112066 219 36364ft 374kts
20-Nov-20 18:45 37.637467 -113.178094 219 36363ft 374kts
20-Nov-20 18:46 37.547393 -113.243886 219 36361ft 374kts
20-Nov-20 18:47 37.457233 -113.309560 219 36353ft 374kts
20-Nov-20 18:48 37.367242 -113.374921 219 36303ft 374kts
20-Nov-20 18:49 37.276941 -113.440328 219 36267ft 374kts
20-Nov-20 18:51 37.186791 -113.505444 219 36263ft 374kts
20-Nov-20 18:52 37.096504 -113.570474 220 36261ft 375kts
20-Nov-20 18:53 37.005123 -113.636153 220 36261ft 383kts
20-Nov-20 18:54 36.911557 -113.703062 219 36279ft 389kts
20-Nov-20 18:55 36.817729 -113.770050 220 36279ft 387kts
20-Nov-20 18:56 36.723910 -113.836873 219 36277ft 387kts
20-Nov-20 18:57 36.630333 -113.903327 220 36276ft 387kts
20-Nov-20 18:58 36.536582 -113.969715 220 36275ft 387kts
20-Nov-20 18:59 36.442656 -114.036044 220 36269ft 387kts
20-Nov-20 19:00 36.348861 -114.102091 219 36258ft 387kts
20-Nov-20 19:01 36.255082 -114.167947 219 36243ft 387kts
20-Nov-20 19:02 36.161058 -114.233787 219 36233ft 387kts
20-Nov-20 19:03 36.072624 -114.305969 232 36235ft 371kts
20-Nov-20 19:04 36.003413 -114.399767 236 36229ft 367kts
20-Nov-20 19:05 35.935623 -114.493631 236 36228ft 367kts
20-Nov-20 19:06 35.867543 -114.587587 236 36226ft 367kts
20-Nov-20 19:06 35.810643 -114.665888 235 36240ft 368kts
20-Nov-20 19:08 35.730792 -114.775375 235 36242ft 368kts
20-Nov-20 19:08 35.673995 -114.853131 235 36241ft 368kts
20-Nov-20 19:10 35.594047 -114.962201 235 36237ft 368kts
20-Nov-20 19:11 35.524930 -115.054471 229 36245ft 372kts
20-Nov-20 19:11 35.446460 -115.105745 210 36237ft 398kts
20-Nov-20 19:12 35.341516 -115.149361 210 36228ft 397kts
20-Nov-20 19:13 35.237192 -115.192894 210 36188ft 396kts
20-Nov-20 19:14 35.133030 -115.236232 210 36169ft 396kts
20-Nov-20 19:15 35.028630 -115.279555 210 36167ft 397kts
20-Nov-20 19:16 34.923517 -115.323089 210 36168ft 405kts
20-Nov-20 19:17 34.815504 -115.367623 210 36164ft 409kts
20-Nov-20 19:18 34.707769 -115.411956 210 36166ft 408kts
20-Nov-20 19:19 34.600146 -115.456128 210 36225ft 408kts
20-Nov-20 19:20 34.491960 -115.500402 210 36254ft 408kts
20-Nov-20 19:21 34.383989 -115.544469 210 36254ft 408kts
20-Nov-20 19:22 34.276309 -115.588303 210 36253ft 408kts
20-Nov-20 19:23 34.168782 -115.633965 213 36253ft 403kts
20-Nov-20 19:24 34.064275 -115.683764 213 36263ft 391kts
20-Nov-20 19:25 33.963111 -115.731542 213 36161ft 393kts
20-Nov-20 19:26 33.860260 -115.781060 213 34753ft 402kts
20-Nov-20 19:27 33.757168 -115.831479 212 32170ft 401kts
20-Nov-20 19:28 33.657157 -115.878019 211 29672ft 369kts
20-Nov-20 19:29 33.565170 -115.921046 211 27358ft 343kts
20-Nov-20 19:30 33.494156 -115.983019 237 26106ft 314kts
20-Nov-20 19:31 33.441933 -116.070591 240 26089ft 323kts
20-Nov-20 19:32 33.390545 -116.159079 240 25885ft 315kts
20-Nov-20 19:33 33.336376 -116.244557 226 23230ft 338kts
20-Nov-20 19:34 33.252906 -116.299756 211 20915ft 350kts
20-Nov-20 19:35 33.165202 -116.351022 210 18530ft 349kts
20-Nov-20 19:36 33.078047 -116.401967 209 16004ft 350kts
20-Nov-20 19:37 32.996342 -116.453708 219 14029ft 305kts
20-Nov-20 19:38 32.932579 -116.517905 222 13988ft 300kts
20-Nov-20 19:39 32.870705 -116.580281 221 12496ft 285kts
20-Nov-20 19:40 32.810636 -116.640725 221 10404ft 279kts
20-Nov-20 19:41 32.760355 -116.706245 240 8967ft 275kts
20-Nov-20 19:42 32.723053 -116.785290 241 6858ft 273kts
20-Nov-20 19:43 32.693185 -116.863301 251 5760ft 235kts
20-Nov-20 19:44 32.675306 -116.933601 271 4622ft 211kts
20-Nov-20 19:45 32.687123 -116.998986 286 3596ft 198kts
20-Nov-20 19:46 32.701612 -117.058186 286 2514ft 170kts
20-Nov-20 19:47 32.714370 -117.110557 286 2226ft 143kts
20-Nov-20 19:48 32.725072 -117.154814 286 582ft 141kts
20-Nov-20 19:49 32.734694 -117.194324 286 28ft 47kts
20-Nov-20 19:50 32.734749 -117.199484 252 28ft 9kts
20-Nov-20 19:51 32.734160 -117.200751 209 28ft 0kts

Navigation Log

Ident Type
Flight plan parsing failed, navigation log unavailable